sensor_id;sensor_type;location;lat;lon;timestamp;pressure;altitude;pressure_sealevel;temperature;humidity
829;BME280;396;52.558;13.188;2022-12-07T00:00:33;100768.16;;;3.02;100.00
829;BME280;396;52.558;13.188;2022-12-07T00:03:01;100760.66;;;3.04;100.00
829;BME280;396;52.558;13.188;2022-12-07T00:05:29;100766.09;;;3.09;100.00
829;BME280;396;52.558;13.188;2022-12-07T00:07:56;100761.00;;;3.08;100.00
829;BME280;396;52.558;13.188;2022-12-07T00:10:22;100765.53;;;3.07;100.00
829;BME280;396;52.558;13.188;2022-12-07T00:12:49;100755.09;;;3.06;100.00
829;BME280;396;52.558;13.188;2022-12-07T00:15:16;100756.13;;;3.04;100.00
829;BME280;396;52.558;13.188;2022-12-07T00:17:42;100757.19;;;3.03;100.00
829;BME280;396;52.558;13.188;2022-12-07T00:20:11;100755.31;;;3.04;100.00
829;BME280;396;52.558;13.188;2022-12-07T00:22:37;100746.00;;;3.07;100.00
829;BME280;396;52.558;13.188;2022-12-07T00:25:04;100745.03;;;2.96;100.00
829;BME280;396;52.558;13.188;2022-12-07T00:27:31;100746.41;;;2.98;100.00
829;BME280;396;52.558;13.188;2022-12-07T00:29:58;100751.53;;;2.83;100.00
829;BME280;396;52.558;13.188;2022-12-07T00:32:24;100744.03;;;2.80;100.00
829;BME280;396;52.558;13.188;2022-12-07T00:34:51;100740.38;;;2.69;100.00
829;BME280;396;52.558;13.188;2022-12-07T00:37:18;100742.75;;;2.66;100.00
829;BME280;396;52.558;13.188;2022-12-07T00:39:45;100736.56;;;2.65;100.00
829;BME280;396;52.558;13.188;2022-12-07T00:42:12;100738.22;;;2.66;100.00
829;BME280;396;52.558;13.188;2022-12-07T00:44:38;100732.53;;;2.63;100.00
829;BME280;396;52.558;13.188;2022-12-07T00:47:05;100729.59;;;2.64;100.00
829;BME280;396;52.558;13.188;2022-12-07T00:49:31;100732.59;;;2.68;100.00
829;BME280;396;52.558;13.188;2022-12-07T00:51:58;100728.06;;;2.68;100.00
829;BME280;396;52.558;13.188;2022-12-07T00:54:26;100727.00;;;2.69;100.00
829;BME280;396;52.558;13.188;2022-12-07T00:56:52;100724.31;;;2.69;100.00
829;BME280;396;52.558;13.188;2022-12-07T00:59:19;100719.50;;;2.66;100.00
829;BME280;396;52.558;13.188;2022-12-07T01:01:46;100724.31;;;2.69;100.00
829;BME280;396;52.558;13.188;2022-12-07T01:04:12;100715.75;;;2.67;100.00
829;BME280;396;52.558;13.188;2022-12-07T01:06:39;100716.00;;;2.66;100.00
829;BME280;396;52.558;13.188;2022-12-07T01:09:05;100728.72;;;2.75;100.00
829;BME280;396;52.558;13.188;2022-12-07T01:11:33;100728.72;;;2.75;100.00
829;BME280;396;52.558;13.188;2022-12-07T01:14:00;100708.44;;;2.80;100.00
829;BME280;396;52.558;13.188;2022-12-07T01:16:30;100708.34;;;2.74;100.00
829;BME280;396;52.558;13.188;2022-12-07T01:18:58;100698.22;;;2.76;100.00
829;BME280;396;52.558;13.188;2022-12-07T01:21:26;100698.78;;;2.78;100.00
829;BME280;396;52.558;13.188;2022-12-07T01:23:54;100696.69;;;2.81;100.00
829;BME280;396;52.558;13.188;2022-12-07T01:26:22;100693.22;;;2.80;100.00
829;BME280;396;52.558;13.188;2022-12-07T01:28:51;100698.31;;;2.82;100.00
829;BME280;396;52.558;13.188;2022-12-07T01:31:21;100700.09;;;2.76;100.00
829;BME280;396;52.558;13.188;2022-12-07T01:33:51;100699.53;;;2.74;100.00
829;BME280;396;52.558;13.188;2022-12-07T01:36:20;100692.31;;;2.74;100.00
829;BME280;396;52.558;13.188;2022-12-07T01:38:48;100682.06;;;2.66;100.00
829;BME280;396;52.558;13.188;2022-12-07T01:41:17;100678.09;;;2.52;100.00
829;BME280;396;52.558;13.188;2022-12-07T01:46:52;100688.88;;;2.57;100.00
829;BME280;396;52.558;13.188;2022-12-07T01:49:24;100683.81;;;2.61;100.00
829;BME280;396;52.558;13.188;2022-12-07T01:51:56;100684.06;;;2.59;100.00
829;BME280;396;52.558;13.188;2022-12-07T01:54:24;100670.38;;;2.56;100.00
829;BME280;396;52.558;13.188;2022-12-07T01:56:53;100669.78;;;2.48;100.00
829;BME280;396;52.558;13.188;2022-12-07T01:59:23;100665.78;;;2.51;100.00
829;BME280;396;52.558;13.188;2022-12-07T02:01:53;100665.22;;;2.49;100.00
829;BME280;396;52.558;13.188;2022-12-07T02:04:21;100658.28;;;2.48;100.00
829;BME280;396;52.558;13.188;2022-12-07T02:06:48;100653.72;;;2.48;100.00
829;BME280;396;52.558;13.188;2022-12-07T02:09:15;100644.25;;;2.41;100.00
829;BME280;396;52.558;13.188;2022-12-07T02:11:42;100647.66;;;2.36;100.00
829;BME280;396;52.558;13.188;2022-12-07T02:14:09;100647.59;;;2.31;100.00
829;BME280;396;52.558;13.188;2022-12-07T02:16:43;100653.16;;;2.30;100.00
829;BME280;396;52.558;13.188;2022-12-07T02:19:39;100651.28;;;2.30;100.00
829;BME280;396;52.558;13.188;2022-12-07T02:22:23;100645.72;;;2.32;100.00
829;BME280;396;52.558;13.188;2022-12-07T02:25:04;100643.13;;;2.37;100.00
829;BME280;396;52.558;13.188;2022-12-07T02:27:40;100638.25;;;2.34;100.00
829;BME280;396;52.558;13.188;2022-12-07T02:30:14;100636.38;;;2.34;100.00
829;BME280;396;52.558;13.188;2022-12-07T02:32:49;100629.22;;;2.35;100.00
829;BME280;396;52.558;13.188;2022-12-07T02:35:19;100629.69;;;2.32;100.00
829;BME280;396;52.558;13.188;2022-12-07T02:37:52;100627.00;;;2.32;100.00
829;BME280;396;52.558;13.188;2022-12-07T02:40:24;100620.59;;;2.33;100.00
829;BME280;396;52.558;13.188;2022-12-07T02:42:57;100616.88;;;2.34;100.00
829;BME280;396;52.558;13.188;2022-12-07T02:45:27;100617.94;;;2.33;100.00
829;BME280;396;52.558;13.188;2022-12-07T02:47:58;100607.72;;;2.30;100.00
829;BME280;396;52.558;13.188;2022-12-07T02:50:26;100602.22;;;2.36;100.00
829;BME280;396;52.558;13.188;2022-12-07T02:52:53;100608.84;;;2.34;100.00
829;BME280;396;52.558;13.188;2022-12-07T02:55:23;100607.25;;;2.33;100.00
829;BME280;396;52.558;13.188;2022-12-07T02:58:01;100600.84;;;2.34;100.00
829;BME280;396;52.558;13.188;2022-12-07T03:00:41;100593.81;;;2.27;100.00
829;BME280;396;52.558;13.188;2022-12-07T03:03:12;100587.66;;;2.27;100.00
829;BME280;396;52.558;13.188;2022-12-07T03:05:58;100589.28;;;2.28;100.00
829;BME280;396;52.558;13.188;2022-12-07T03:08:31;100589.53;;;2.26;100.00
829;BME280;396;52.558;13.188;2022-12-07T03:11:03;100579.13;;;2.30;100.00
829;BME280;396;52.558;13.188;2022-12-07T03:13:35;100581.09;;;2.35;100.00
829;BME280;396;52.558;13.188;2022-12-07T03:16:09;100568.72;;;2.28;100.00
829;BME280;396;52.558;13.188;2022-12-07T03:18:41;100560.75;;;2.34;100.00
829;BME280;396;52.558;13.188;2022-12-07T03:21:11;100561.56;;;2.34;100.00
829;BME280;396;52.558;13.188;2022-12-07T03:23:42;100547.44;;;2.39;100.00
829;BME280;396;52.558;13.188;2022-12-07T03:26:12;100551.50;;;2.41;100.00
829;BME280;396;52.558;13.188;2022-12-07T03:28:44;100542.94;;;2.39;100.00
829;BME280;396;52.558;13.188;2022-12-07T03:31:16;100545.91;;;2.43;100.00
829;BME280;396;52.558;13.188;2022-12-07T03:33:47;100534.72;;;2.46;100.00
829;BME280;396;52.558;13.188;2022-12-07T03:36:20;100536.59;;;2.45;100.00
829;BME280;396;52.558;13.188;2022-12-07T03:38:50;100524.03;;;2.46;100.00
829;BME280;396;52.558;13.188;2022-12-07T03:41:23;100520.94;;;2.54;100.00
829;BME280;396;52.558;13.188;2022-12-07T03:43:50;100524.16;;;2.56;100.00
829;BME280;396;52.558;13.188;2022-12-07T03:46:21;100507.06;;;2.57;100.00
829;BME280;396;52.558;13.188;2022-12-07T03:48:56;100516.69;;;2.58;100.00
829;BME280;396;52.558;13.188;2022-12-07T03:51:27;100502.75;;;2.56;100.00
829;BME280;396;52.558;13.188;2022-12-07T03:53:59;100505.75;;;2.60;100.00
829;BME280;396;52.558;13.188;2022-12-07T03:56:28;100512.47;;;2.62;100.00
829;BME280;396;52.558;13.188;2022-12-07T03:58:55;100505.25;;;2.63;100.00
829;BME280;396;52.558;13.188;2022-12-07T04:01:24;100500.16;;;2.61;100.00
829;BME280;396;52.558;13.188;2022-12-07T04:03:50;100499.09;;;2.62;100.00
829;BME280;396;52.558;13.188;2022-12-07T04:06:17;100508.19;;;2.61;100.00
829;BME280;396;52.558;13.188;2022-12-07T04:08:44;100494.56;;;2.63;100.00
829;BME280;396;52.558;13.188;2022-12-07T04:11:10;100494.31;;;2.64;100.00
829;BME280;396;52.558;13.188;2022-12-07T04:13:37;100492.44;;;2.65;100.00
829;BME280;396;52.558;13.188;2022-12-07T04:16:17;100490.50;;;2.60;100.00
829;BME280;396;52.558;13.188;2022-12-07T04:18:45;100482.25;;;2.62;100.00
829;BME280;396;52.558;13.188;2022-12-07T04:21:12;100481.44;;;2.61;100.00
829;BME280;396;52.558;13.188;2022-12-07T04:23:38;100478.22;;;2.59;100.00
829;BME280;396;52.558;13.188;2022-12-07T04:26:05;100474.38;;;2.50;100.00
829;BME280;396;52.558;13.188;2022-12-07T04:28:32;100467.94;;;2.51;100.00
829;BME280;396;52.558;13.188;2022-12-07T04:30:58;100472.50;;;2.50;100.00
829;BME280;396;52.558;13.188;2022-12-07T04:33:25;100461.84;;;2.56;100.00
829;BME280;396;52.558;13.188;2022-12-07T04:35:53;100458.94;;;2.57;100.00
829;BME280;396;52.558;13.188;2022-12-07T04:38:19;100458.63;;;2.53;100.00
829;BME280;396;52.558;13.188;2022-12-07T04:40:46;100463.47;;;2.57;100.00
829;BME280;396;52.558;13.188;2022-12-07T04:43:12;100466.50;;;2.65;100.00
829;BME280;396;52.558;13.188;2022-12-07T04:45:39;100460.66;;;2.68;100.00
829;BME280;396;52.558;13.188;2022-12-07T04:48:06;100463.94;;;2.75;100.00
829;BME280;396;52.558;13.188;2022-12-07T04:50:32;100451.06;;;2.72;100.00
829;BME280;396;52.558;13.188;2022-12-07T04:53:00;100445.72;;;2.72;100.00
829;BME280;396;52.558;13.188;2022-12-07T04:55:27;100443.84;;;2.73;100.00
829;BME280;396;52.558;13.188;2022-12-07T04:57:53;100447.34;;;2.73;100.00
829;BME280;396;52.558;13.188;2022-12-07T05:00:20;100451.69;;;2.80;100.00
829;BME280;396;52.558;13.188;2022-12-07T05:02:46;100454.91;;;2.82;100.00
829;BME280;396;52.558;13.188;2022-12-07T05:05:13;100447.47;;;2.84;100.00
829;BME280;396;52.558;13.188;2022-12-07T05:07:39;100432.75;;;2.86;100.00
829;BME280;396;52.558;13.188;2022-12-07T05:10:08;100437.34;;;2.91;100.00
829;BME280;396;52.558;13.188;2022-12-07T05:12:35;100430.91;;;2.92;100.00
829;BME280;396;52.558;13.188;2022-12-07T05:15:02;100426.19;;;2.99;100.00
829;BME280;396;52.558;13.188;2022-12-07T05:17:29;100431.53;;;2.99;100.00
829;BME280;396;52.558;13.188;2022-12-07T05:19:55;100430.25;;;3.07;100.00
829;BME280;396;52.558;13.188;2022-12-07T05:22:22;100429.75;;;3.10;100.00
829;BME280;396;52.558;13.188;2022-12-07T05:24:51;100430.03;;;3.13;100.00
829;BME280;396;52.558;13.188;2022-12-07T05:27:19;100430.59;;;3.15;100.00
829;BME280;396;52.558;13.188;2022-12-07T05:29:45;100429.84;;;3.20;100.00
829;BME280;396;52.558;13.188;2022-12-07T05:32:12;100427.97;;;3.20;100.00
829;BME280;396;52.558;13.188;2022-12-07T05:34:38;100427.41;;;3.18;100.00
829;BME280;396;52.558;13.188;2022-12-07T05:37:05;100413.25;;;3.23;100.00
829;BME280;396;52.558;13.188;2022-12-07T05:39:31;100410.84;;;3.21;100.00
829;BME280;396;52.558;13.188;2022-12-07T05:41:58;100411.13;;;3.25;100.00
829;BME280;396;52.558;13.188;2022-12-07T05:44:42;100405.28;;;3.28;100.00
829;BME280;396;52.558;13.188;2022-12-07T05:47:10;100407.44;;;3.31;100.00
829;BME280;396;52.558;13.188;2022-12-07T05:49:36;100397.28;;;3.33;100.00
829;BME280;396;52.558;13.188;2022-12-07T05:52:03;100393.84;;;3.38;100.00
829;BME280;396;52.558;13.188;2022-12-07T05:54:30;100396.50;;;3.38;100.00
829;BME280;396;52.558;13.188;2022-12-07T05:56:56;100382.31;;;3.37;100.00
829;BME280;396;52.558;13.188;2022-12-07T05:59:23;100390.38;;;3.42;100.00
829;BME280;396;52.558;13.188;2022-12-07T06:01:51;100390.13;;;3.44;100.00
829;BME280;396;52.558;13.188;2022-12-07T06:04:17;100385.31;;;3.46;100.00
829;BME280;396;52.558;13.188;2022-12-07T06:06:44;100389.03;;;3.45;100.00
829;BME280;396;52.558;13.188;2022-12-07T06:09:11;100389.03;;;3.45;100.00
829;BME280;396;52.558;13.188;2022-12-07T06:11:38;100393.34;;;3.46;100.00
829;BME280;396;52.558;13.188;2022-12-07T06:14:22;100390.94;;;3.49;100.00
829;BME280;396;52.558;13.188;2022-12-07T06:16:50;100387.22;;;3.50;100.00
829;BME280;396;52.558;13.188;2022-12-07T06:19:17;100384.28;;;3.52;100.00
829;BME280;396;52.558;13.188;2022-12-07T06:21:44;100375.16;;;3.53;100.00
829;BME280;396;52.558;13.188;2022-12-07T06:24:11;100385.88;;;3.53;100.00
829;BME280;396;52.558;13.188;2022-12-07T06:26:38;100385.09;;;3.58;100.00
829;BME280;396;52.558;13.188;2022-12-07T06:29:05;100386.97;;;3.52;100.00
829;BME280;396;52.558;13.188;2022-12-07T06:31:31;100384.53;;;3.45;100.00
829;BME280;396;52.558;13.188;2022-12-07T06:34:00;100381.84;;;3.45;100.00
829;BME280;396;52.558;13.188;2022-12-07T06:36:27;100372.47;;;3.48;100.00
829;BME280;396;52.558;13.188;2022-12-07T06:38:53;100373.28;;;3.48;100.00
829;BME280;396;52.558;13.188;2022-12-07T06:41:20;100373.03;;;3.50;100.00
829;BME280;396;52.558;13.188;2022-12-07T06:43:47;100374.94;;;3.54;100.00
829;BME280;396;52.558;13.188;2022-12-07T06:46:14;100377.88;;;3.58;100.00
829;BME280;396;52.558;13.188;2022-12-07T06:48:41;100374.41;;;3.63;100.00
829;BME280;396;52.558;13.188;2022-12-07T06:51:09;100384.88;;;3.64;100.00
829;BME280;396;52.558;13.188;2022-12-07T06:53:36;100368.84;;;3.69;100.00
829;BME280;396;52.558;13.188;2022-12-07T06:56:04;100367.75;;;3.65;100.00
829;BME280;396;52.558;13.188;2022-12-07T06:58:31;100366.13;;;3.64;100.00
829;BME280;396;52.558;13.188;2022-12-07T07:00:57;100373.13;;;3.70;100.00
829;BME280;396;52.558;13.188;2022-12-07T07:03:24;100371.28;;;3.76;100.00
829;BME280;396;52.558;13.188;2022-12-07T07:05:50;100368.06;;;3.79;100.00
829;BME280;396;52.558;13.188;2022-12-07T07:08:18;100371.53;;;3.74;100.00
829;BME280;396;52.558;13.188;2022-12-07T07:10:45;100374.72;;;3.71;100.00
829;BME280;396;52.558;13.188;2022-12-07T07:13:11;100369.69;;;3.80;100.00
829;BME280;396;52.558;13.188;2022-12-07T07:15:38;100370.78;;;3.84;100.00
829;BME280;396;52.558;13.188;2022-12-07T07:18:05;100375.84;;;3.80;100.00
829;BME280;396;52.558;13.188;2022-12-07T07:20:31;100378.28;;;3.82;100.00
829;BME280;396;52.558;13.188;2022-12-07T07:22:58;100379.59;;;3.79;100.00
829;BME280;396;52.558;13.188;2022-12-07T07:25:26;100370.44;;;3.70;100.00
829;BME280;396;52.558;13.188;2022-12-07T07:27:52;100375.28;;;3.73;100.00
829;BME280;396;52.558;13.188;2022-12-07T07:30:19;100373.63;;;3.67;100.00
829;BME280;396;52.558;13.188;2022-12-07T07:32:46;100377.94;;;3.68;100.00
829;BME280;396;52.558;13.188;2022-12-07T07:35:13;100387.06;;;3.72;100.00
829;BME280;396;52.558;13.188;2022-12-07T07:37:39;100377.19;;;3.78;100.00
829;BME280;396;52.558;13.188;2022-12-07T07:40:07;100379.63;;;3.85;100.00
829;BME280;396;52.558;13.188;2022-12-07T07:42:35;100373.72;;;3.83;100.00
829;BME280;396;52.558;13.188;2022-12-07T07:45:02;100376.13;;;3.84;100.00
829;BME280;396;52.558;13.188;2022-12-07T07:47:29;100373.44;;;3.84;100.00
829;BME280;396;52.558;13.188;2022-12-07T07:49:56;100370.78;;;3.84;100.00
829;BME280;396;52.558;13.188;2022-12-07T07:52:22;100391.16;;;3.85;100.00
829;BME280;396;52.558;13.188;2022-12-07T07:54:49;100393.28;;;3.88;100.00
829;BME280;396;52.558;13.188;2022-12-07T07:57:16;100394.88;;;3.84;100.00
829;BME280;396;52.558;13.188;2022-12-07T07:59:44;100394.09;;;3.89;100.00
829;BME280;396;52.558;13.188;2022-12-07T08:02:14;100398.38;;;3.85;100.00
829;BME280;396;52.558;13.188;2022-12-07T08:04:41;100392.50;;;3.88;100.00
829;BME280;396;52.558;13.188;2022-12-07T08:07:08;100401.03;;;3.85;100.00
829;BME280;396;52.558;13.188;2022-12-07T08:09:35;100397.06;;;3.87;100.00
829;BME280;396;52.558;13.188;2022-12-07T08:12:01;100391.41;;;3.89;100.00
829;BME280;396;52.558;13.188;2022-12-07T08:14:28;100400.81;;;3.91;100.00
829;BME280;396;52.558;13.188;2022-12-07T08:16:56;100396.75;;;3.84;100.00
829;BME280;396;52.558;13.188;2022-12-07T08:19:23;100395.19;;;3.88;100.00
829;BME280;396;52.558;13.188;2022-12-07T08:21:50;100389.84;;;3.93;100.00
829;BME280;396;52.558;13.188;2022-12-07T08:24:16;100395.72;;;3.90;100.00
829;BME280;396;52.558;13.188;2022-12-07T08:26:43;100398.94;;;3.92;100.00
829;BME280;396;52.558;13.188;2022-12-07T08:29:09;100394.13;;;3.94;100.00
829;BME280;396;52.558;13.188;2022-12-07T08:31:36;100410.16;;;3.89;100.00
829;BME280;396;52.558;13.188;2022-12-07T08:34:04;100400.03;;;3.91;100.00
829;BME280;396;52.558;13.188;2022-12-07T08:36:30;100407.50;;;3.94;100.00
829;BME280;396;52.558;13.188;2022-12-07T08:38:57;100408.34;;;3.94;100.00
829;BME280;396;52.558;13.188;2022-12-07T08:41:23;100427.34;;;3.93;100.00
829;BME280;396;52.558;13.188;2022-12-07T08:43:51;100423.34;;;3.90;100.00
829;BME280;396;52.558;13.188;2022-12-07T08:46:20;100418.78;;;3.91;100.00
829;BME280;396;52.558;13.188;2022-12-07T08:48:50;100421.97;;;3.93;100.00
829;BME280;396;52.558;13.188;2022-12-07T08:51:20;100424.13;;;3.91;100.00
829;BME280;396;52.558;13.188;2022-12-07T08:53:48;100433.50;;;3.93;100.00
829;BME280;396;52.558;13.188;2022-12-07T08:56:15;100436.44;;;3.92;100.00
829;BME280;396;52.558;13.188;2022-12-07T08:58:42;100433.78;;;3.97;100.00
829;BME280;396;52.558;13.188;2022-12-07T09:01:09;100440.66;;;3.77;96.93
829;BME280;396;52.558;13.188;2022-12-07T09:03:36;100444.97;;;3.84;96.18
829;BME280;396;52.558;13.188;2022-12-07T09:06:03;100451.91;;;3.79;95.13
829;BME280;396;52.558;13.188;2022-12-07T09:08:34;100450.28;;;3.73;95.24
829;BME280;396;52.558;13.188;2022-12-07T09:11:02;100451.91;;;3.74;95.71
829;BME280;396;52.558;13.188;2022-12-07T09:13:29;100452.47;;;3.76;97.41
829;BME280;396;52.558;13.188;2022-12-07T09:15:55;100451.94;;;3.85;96.89
829;BME280;396;52.558;13.188;2022-12-07T09:18:22;100444.97;;;3.84;97.13
829;BME280;396;52.558;13.188;2022-12-07T09:20:49;100459.97;;;3.85;98.26
829;BME280;396;52.558;13.188;2022-12-07T09:23:16;100451.13;;;3.84;97.70
829;BME280;396;52.558;13.188;2022-12-07T09:25:44;100458.13;;;3.85;97.43
829;BME280;396;52.558;13.188;2022-12-07T09:28:10;100458.97;;;3.91;97.00
829;BME280;396;52.558;13.188;2022-12-07T09:30:37;100459.50;;;3.93;96.82
829;BME280;396;52.558;13.188;2022-12-07T09:33:03;100463.72;;;3.78;95.84
829;BME280;396;52.558;13.188;2022-12-07T09:35:30;100474.44;;;3.84;94.23
829;BME280;396;52.558;13.188;2022-12-07T09:37:56;100468.53;;;3.76;96.08
829;BME280;396;52.558;13.188;2022-12-07T09:40:23;100473.13;;;3.81;96.14
829;BME280;396;52.558;13.188;2022-12-07T09:42:53;100472.28;;;3.80;96.21
829;BME280;396;52.558;13.188;2022-12-07T09:45:22;100482.19;;;3.80;97.06
829;BME280;396;52.558;13.188;2022-12-07T09:47:50;100473.31;;;3.74;97.13
829;BME280;396;52.558;13.188;2022-12-07T09:50:19;100472.72;;;3.67;96.21
829;BME280;396;52.558;13.188;2022-12-07T09:52:47;100476.50;;;3.71;96.85
829;BME280;396;52.558;13.188;2022-12-07T09:55:19;100468.47;;;3.71;98.49
829;BME280;396;52.558;13.188;2022-12-07T09:57:47;100479.25;;;3.76;97.92
829;BME280;396;52.558;13.188;2022-12-07T10:00:19;100481.59;;;3.68;97.38
829;BME280;396;52.558;13.188;2022-12-07T10:02:47;100479.19;;;3.71;97.93
829;BME280;396;52.558;13.188;2022-12-07T10:05:19;100472.25;;;3.75;98.24
829;BME280;396;52.558;13.188;2022-12-07T10:07:47;100474.38;;;3.68;98.54
829;BME280;396;52.558;13.188;2022-12-07T10:10:17;100480.59;;;3.79;99.38
829;BME280;396;52.558;13.188;2022-12-07T10:12:54;100477.91;;;3.79;99.05
829;BME280;396;52.558;13.188;2022-12-07T10:15:22;100466.31;;;3.63;97.32
829;BME280;396;52.558;13.188;2022-12-07T10:17:50;100473.28;;;3.69;96.75
829;BME280;396;52.558;13.188;2022-12-07T10:20:20;100469.84;;;3.74;95.78
829;BME280;396;52.558;13.188;2022-12-07T10:22:58;100471.47;;;3.80;95.91
829;BME280;396;52.558;13.188;2022-12-07T10:25:27;100475.81;;;3.86;95.72
829;BME280;396;52.558;13.188;2022-12-07T10:28:01;100468.09;;;3.95;96.11
829;BME280;396;52.558;13.188;2022-12-07T10:30:31;100472.34;;;3.91;96.96
829;BME280;396;52.558;13.188;2022-12-07T10:32:59;100472.06;;;3.87;97.48
829;BME280;396;52.558;13.188;2022-12-07T10:35:28;100471.31;;;3.97;98.18
829;BME280;396;52.558;13.188;2022-12-07T10:37:57;100470.31;;;4.08;97.92
829;BME280;396;52.558;13.188;2022-12-07T10:40:28;100472.22;;;4.18;96.69
829;BME280;396;52.558;13.188;2022-12-07T10:43:15;100463.56;;;4.00;96.23
829;BME280;396;52.558;13.188;2022-12-07T10:46:07;100466.81;;;4.08;96.12
829;BME280;396;52.558;13.188;2022-12-07T10:48:43;100450.50;;;4.14;96.12
829;BME280;396;52.558;13.188;2022-12-07T10:51:20;100460.94;;;4.16;96.47
829;BME280;396;52.558;13.188;2022-12-07T10:54:02;100457.16;;;4.12;96.58
829;BME280;396;52.558;13.188;2022-12-07T10:56:47;100456.94;;;4.18;96.52
829;BME280;396;52.558;13.188;2022-12-07T10:59:31;100456.16;;;4.18;97.12
829;BME280;396;52.558;13.188;2022-12-07T11:02:14;100462.84;;;4.20;97.12
829;BME280;396;52.558;13.188;2022-12-07T11:04:56;100459.91;;;4.22;96.94
829;BME280;396;52.558;13.188;2022-12-07T11:07:36;100456.16;;;4.23;97.02
829;BME280;396;52.558;13.188;2022-12-07T11:10:09;100458.63;;;4.29;96.66
829;BME280;396;52.558;13.188;2022-12-07T11:12:47;100460.44;;;4.24;96.55
829;BME280;396;52.558;13.188;2022-12-07T11:15:22;100460.72;;;4.22;97.13
829;BME280;396;52.558;13.188;2022-12-07T11:17:57;100463.38;;;4.17;97.06
829;BME280;396;52.558;13.188;2022-12-07T11:20:37;100447.59;;;4.21;98.27
829;BME280;396;52.558;13.188;2022-12-07T11:23:17;100442.53;;;4.35;97.56
829;BME280;396;52.558;13.188;2022-12-07T11:25:51;100440.66;;;4.35;97.14
829;BME280;396;52.558;13.188;2022-12-07T11:28:38;100441.47;;;4.41;96.55
829;BME280;396;52.558;13.188;2022-12-07T11:31:14;100436.13;;;4.46;95.25
829;BME280;396;52.558;13.188;2022-12-07T11:33:51;100445.25;;;4.50;95.45
829;BME280;396;52.558;13.188;2022-12-07T11:36:31;100434.81;;;4.48;95.34
829;BME280;396;52.558;13.188;2022-12-07T11:39:02;100441.53;;;4.56;95.26
829;BME280;396;52.558;13.188;2022-12-07T11:41:33;100434.00;;;4.53;95.47
829;BME280;396;52.558;13.188;2022-12-07T11:44:05;100427.34;;;4.61;95.18
829;BME280;396;52.558;13.188;2022-12-07T11:46:43;100433.75;;;4.54;95.42
829;BME280;396;52.558;13.188;2022-12-07T11:49:16;100429.19;;;4.60;94.74
829;BME280;396;52.558;13.188;2022-12-07T11:51:49;100432.41;;;4.57;95.42
829;BME280;396;52.558;13.188;2022-12-07T11:54:19;100424.63;;;4.55;96.13
829;BME280;396;52.558;13.188;2022-12-07T11:56:49;100423.03;;;4.65;95.23
829;BME280;396;52.558;13.188;2022-12-07T11:59:21;100419.56;;;4.69;95.68
829;BME280;396;52.558;13.188;2022-12-07T12:01:53;100418.22;;;4.77;94.83
829;BME280;396;52.558;13.188;2022-12-07T12:04:34;100418.78;;;4.74;94.15
829;BME280;396;52.558;13.188;2022-12-07T12:07:06;100421.97;;;4.81;94.09
829;BME280;396;52.558;13.188;2022-12-07T12:09:35;100425.75;;;4.85;93.37
829;BME280;396;52.558;13.188;2022-12-07T12:12:20;100420.66;;;4.84;93.34
829;BME280;396;52.558;13.188;2022-12-07T12:14:59;100411.25;;;4.81;94.46
829;BME280;396;52.558;13.188;2022-12-07T12:17:50;100406.69;;;4.81;94.42
829;BME280;396;52.558;13.188;2022-12-07T12:20:26;100406.16;;;4.90;93.50
829;BME280;396;52.558;13.188;2022-12-07T12:22:58;100405.59;;;4.77;94.07
829;BME280;396;52.558;13.188;2022-12-07T12:25:29;100396.50;;;4.89;94.10
829;BME280;396;52.558;13.188;2022-12-07T12:27:59;100400.78;;;4.90;94.04
829;BME280;396;52.558;13.188;2022-12-07T12:30:33;100402.69;;;4.79;93.62
829;BME280;396;52.558;13.188;2022-12-07T12:33:13;100394.34;;;4.80;94.37
829;BME280;396;52.558;13.188;2022-12-07T12:35:42;100403.47;;;4.90;94.36
829;BME280;396;52.558;13.188;2022-12-07T12:38:26;100399.19;;;4.78;94.21
829;BME280;396;52.558;13.188;2022-12-07T12:40:53;100408.84;;;4.79;94.81
829;BME280;396;52.558;13.188;2022-12-07T12:43:47;100401.31;;;4.81;94.86
829;BME280;396;52.558;13.188;2022-12-07T12:46:48;100399.19;;;4.89;94.46
829;BME280;396;52.558;13.188;2022-12-07T12:49:37;100405.09;;;4.91;94.36
829;BME280;396;52.558;13.188;2022-12-07T12:55:15;100400.78;;;4.90;94.06
829;BME280;396;52.558;13.188;2022-12-07T12:57:47;100393.81;;;4.94;93.64
829;BME280;396;52.558;13.188;2022-12-07T13:00:18;100396.78;;;4.92;94.78
829;BME280;396;52.558;13.188;2022-12-07T13:02:50;100385.53;;;5.00;94.29
829;BME280;396;52.558;13.188;2022-12-07T13:05:19;100395.69;;;4.98;94.41
829;BME280;396;52.558;13.188;2022-12-07T13:07:55;100396.25;;;5.00;94.57
829;BME280;396;52.558;13.188;2022-12-07T13:10:39;100391.94;;;5.04;92.82
829;BME280;396;52.558;13.188;2022-12-07T13:13:33;100387.38;;;5.00;93.60
829;BME280;396;52.558;13.188;2022-12-07T13:22:43;100396.50;;;5.04;92.90
829;BME280;396;52.558;13.188;2022-12-07T13:25:12;100394.38;;;4.96;93.04
829;BME280;396;52.558;13.188;2022-12-07T13:27:41;100389.78;;;4.91;92.95
829;BME280;396;52.558;13.188;2022-12-07T13:30:14;100393.81;;;4.94;92.66
829;BME280;396;52.558;13.188;2022-12-07T13:32:42;100388.72;;;4.92;92.53
829;BME280;396;52.558;13.188;2022-12-07T13:35:31;100394.34;;;4.91;93.03
829;BME280;396;52.558;13.188;2022-12-07T13:37:58;100390.06;;;4.90;93.31
829;BME280;396;52.558;13.188;2022-12-07T13:40:25;100389.53;;;4.88;94.76
829;BME280;396;52.558;13.188;2022-12-07T13:43:01;100384.69;;;4.85;95.59
829;BME280;396;52.558;13.188;2022-12-07T13:45:29;100380.41;;;4.89;94.89
829;BME280;396;52.558;13.188;2022-12-07T13:48:16;100385.25;;;4.92;95.07
829;BME280;396;52.558;13.188;2022-12-07T13:50:53;100388.47;;;4.94;94.68
829;BME280;396;52.558;13.188;2022-12-07T13:53:20;100382.56;;;5.02;94.00